Time;durP1;ratioP1;P1;durP2;ratioP2;P2;SDS_P1;SDS_P2;PMS_P1;PMS_P2;Temp;Humidity;BMP_temperature;BMP_pressure;BME280_temperature;BME280_humidity;BME280_pressure;Samples;Min_cycle;Max_cycle;Signal;HPM_P1;HPM_P2
2023/07/17 00:00:30;;;;;;;15.95;3.20;;;;;;;17.39;92.03;101008.63;7362340;19;20476;-62
2023/07/17 00:03:08;;;;;;;12.75;3.13;;;;;;;17.39;92.21;101009.44;7360171;19;20014;-62
2023/07/17 00:05:35;;;;;;;11.27;3.10;;;;;;;17.38;91.48;101004.31;7364024;19;20047;-62
2023/07/17 00:08:05;;;;;;;12.77;2.58;;;;;;;17.39;91.54;101011.28;7363177;19;20090;-62
2023/07/17 00:10:32;;;;;;;11.10;2.92;;;;;;;17.40;92.20;101015.59;7361462;19;20089;-62
2023/07/17 00:12:59;;;;;;;12.43;3.20;;;;;;;17.43;92.51;101010.69;7365100;19;20467;-63
2023/07/17 00:15:29;;;;;;;11.00;2.65;;;;;;;17.40;91.63;101004.94;7360607;19;20175;-62
2023/07/17 00:17:57;;;;;;;11.32;3.10;;;;;;;17.38;91.26;101009.63;7361389;19;20018;-62
2023/07/17 00:20:24;;;;;;;8.30;2.20;;;;;;;17.35;91.48;101002.03;7364515;19;20022;-62
2023/07/17 00:22:51;;;;;;;9.10;2.40;;;;;;;17.32;91.50;101003.22;7362962;19;20024;-62
2023/07/17 00:25:18;;;;;;;15.40;3.47;;;;;;;17.34;91.11;101008.38;7364387;19;20019;-62
2023/07/17 00:27:46;;;;;;;7.63;2.28;;;;;;;17.34;89.82;101003.06;7364180;19;20018;-62
2023/07/17 00:30:13;;;;;;;14.65;2.00;;;;;;;17.31;90.27;100998.13;7362459;19;20010;-62
2023/07/17 00:32:40;;;;;;;9.57;2.95;;;;;;;17.30;90.45;101001.78;7362741;19;20511;-62
2023/07/17 00:35:08;;;;;;;11.65;2.00;;;;;;;17.28;90.37;101004.63;7360670;19;20010;-62
2023/07/17 00:37:35;;;;;;;9.63;1.90;;;;;;;17.25;90.37;101004.22;7364180;19;20014;-63
2023/07/17 00:40:04;;;;;;;13.60;2.10;;;;;;;17.21;90.28;101008.28;7362561;19;20029;-62
2023/07/17 00:42:32;;;;;;;10.38;1.83;;;;;;;17.21;90.22;101003.78;7362893;19;20826;-67
2023/07/17 00:45:00;;;;;;;8.57;2.03;;;;;;;17.21;90.25;101002.94;7360822;19;20015;-62
2023/07/17 00:47:29;;;;;;;10.32;1.95;;;;;;;17.21;90.12;101003.78;7362547;19;20806;-62
2023/07/17 00:49:56;;;;;;;9.32;1.90;;;;;;;17.17;89.96;101002.50;7360555;19;21754;-62
2023/07/17 00:52:26;;;;;;;11.07;1.83;;;;;;;17.15;90.02;101001.88;7364175;19;20015;-63
2023/07/17 00:54:54;;;;;;;9.32;2.33;;;;;;;17.13;89.93;101017.19;7360730;19;20026;-63
2023/07/17 00:57:25;;;;;;;9.93;1.55;;;;;;;17.12;90.24;101012.09;7360099;19;20096;-63
2023/07/17 00:59:52;;;;;;;8.13;1.75;;;;;;;17.09;90.63;101016.75;7359465;19;20014;-62
2023/07/17 01:02:22;;;;;;;7.00;2.13;;;;;;;17.05;90.25;101009.34;7362256;19;20024;-62
2023/07/17 01:04:49;;;;;;;8.63;1.45;;;;;;;17.04;90.38;101008.53;7360047;19;20010;-62
2023/07/17 01:07:17;;;;;;;10.82;2.03;;;;;;;17.02;90.65;101012.38;7362520;19;20093;-62
2023/07/17 01:09:48;;;;;;;8.95;2.00;;;;;;;17.01;90.83;101014.25;7360967;19;20025;-62
2023/07/17 01:12:15;;;;;;;8.63;1.70;;;;;;;17.00;90.98;101009.94;7361472;19;21874;-63
2023/07/17 01:14:42;;;;;;;6.32;1.77;;;;;;;17.01;91.13;101014.25;7360157;19;20018;-63
2023/07/17 01:17:10;;;;;;;12.55;1.25;;;;;;;17.01;91.07;101013.41;7361660;19;21031;-61
2023/07/17 01:19:37;;;;;;;8.35;2.28;;;;;;;16.95;90.60;101016.81;7361018;19;20479;-62
2023/07/17 01:22:16;;;;;;;10.55;1.65;;;;;;;16.95;90.80;101024.81;7361305;19;20018;-62
2023/07/17 01:24:44;;;;;;;13.00;2.60;;;;;;;16.97;91.93;101031.56;7357395;19;20006;-61
2023/07/17 01:27:12;;;;;;;13.85;1.70;;;;;;;17.00;91.89;101030.38;7362168;19;20018;-63
2023/07/17 01:29:40;;;;;;;9.32;1.63;;;;;;;16.96;91.31;101024.63;7361062;19;20119;-61
2023/07/17 01:32:07;;;;;;;12.27;1.60;;;;;;;16.91;90.87;101027.03;7360011;19;20007;-61
2023/07/17 01:34:35;;;;;;;5.53;1.25;;;;;;;16.91;90.51;101034.16;7358914;19;20015;-61
2023/07/17 01:37:03;;;;;;;9.55;1.42;;;;;;;16.92;90.87;101033.13;7360983;19;21027;-61
2023/07/17 01:39:30;;;;;;;13.95;2.00;;;;;;;16.92;91.15;101033.97;7360018;19;20032;-63
2023/07/17 01:41:57;;;;;;;7.97;1.55;;;;;;;16.94;91.52;101039.94;7364540;19;20010;-63
2023/07/17 01:44:28;;;;;;;7.70;1.70;;;;;;;16.91;91.47;101042.16;7363206;19;20010;-62
2023/07/17 01:46:55;;;;;;;9.27;1.30;;;;;;;16.92;91.34;101047.25;7360850;19;20025;-62
2023/07/17 01:49:22;;;;;;;12.48;1.50;;;;;;;16.92;91.05;101043.78;7359718;19;20366;-62
2023/07/17 01:51:50;;;;;;;11.27;2.65;;;;;;;16.89;90.75;101044.16;7359969;19;20050;-63
2023/07/17 01:54:17;;;;;;;9.50;1.60;;;;;;;16.89;90.93;101039.66;7358674;19;20014;-63
2023/07/17 01:56:44;;;;;;;8.40;1.45;;;;;;;16.89;91.27;101038.84;7360268;19;20369;-62
2023/07/17 01:59:12;;;;;;;10.18;1.70;;;;;;;16.90;91.32;101036.00;7356280;19;20074;-61
2023/07/17 02:01:39;;;;;;;12.65;1.70;;;;;;;16.91;91.17;101039.50;7360337;19;20153;-64
2023/07/17 02:04:06;;;;;;;12.00;1.83;;;;;;;16.90;91.13;101037.84;7358769;19;20021;-62
2023/07/17 02:06:36;;;;;;;10.70;2.40;;;;;;;16.84;90.77;101039.41;7360030;19;20055;-66
2023/07/17 02:09:04;;;;;;;12.77;3.13;;;;;;;16.79;90.79;101040.97;7359574;19;20034;-63
2023/07/17 02:11:31;;;;;;;10.35;1.83;;;;;;;16.81;92.08;101036.31;7360226;19;20700;-62
2023/07/17 02:13:58;;;;;;;8.73;1.25;;;;;;;16.79;92.36;101033.84;7359544;19;20921;-62
2023/07/17 02:16:25;;;;;;;11.30;1.65;;;;;;;16.77;91.89;101038.50;7355527;19;20010;-62
2023/07/17 02:18:53;;;;;;;6.03;1.27;;;;;;;16.76;91.45;101038.72;7357685;19;20014;-62
2023/07/17 02:21:20;;;;;;;10.23;1.33;;;;;;;16.75;91.51;101034.41;7359733;19;20010;-62
2023/07/17 02:23:48;;;;;;;11.90;1.80;;;;;;;16.73;91.65;101037.25;7359103;19;20558;-62
2023/07/17 02:26:15;;;;;;;7.70;1.02;;;;;;;16.71;91.64;101035.78;7359961;19;20894;-62
2023/07/17 02:28:42;;;;;;;9.30;1.77;;;;;;;16.71;91.72;101033.13;7359074;19;20025;-62
2023/07/17 02:31:10;;;;;;;10.43;1.88;;;;;;;16.71;92.33;101030.47;7357105;19;20110;-61
2023/07/17 02:33:37;;;;;;;11.43;1.60;;;;;;;16.75;92.41;101042.38;7357978;19;20786;-62
2023/07/17 02:36:05;;;;;;;10.38;1.83;;;;;;;16.74;92.38;101035.41;7356990;19;20029;-62
2023/07/17 02:38:32;;;;;;;8.00;1.65;;;;;;;16.71;91.97;101036.59;7358666;19;20019;-62
2023/07/17 02:41:00;;;;;;;6.82;2.28;;;;;;;16.70;91.96;101031.47;7359121;19;20018;-62
2023/07/17 02:43:28;;;;;;;10.05;1.55;;;;;;;16.65;91.63;101029.38;7359582;19;20538;-62
2023/07/17 02:45:55;;;;;;;14.75;2.15;;;;;;;16.65;92.07;101037.38;7357336;19;20374;-62
2023/07/17 02:48:22;;;;;;;12.40;1.63;;;;;;;16.67;92.79;101030.84;7357736;19;20018;-62
2023/07/17 02:50:51;;;;;;;8.18;1.35;;;;;;;16.72;92.39;101037.41;7360908;19;20664;-63
2023/07/17 02:53:18;;;;;;;6.18;1.00;;;;;;;16.72;92.26;101035.59;7357442;19;20007;-64
2023/07/17 02:55:45;;;;;;;5.20;1.05;;;;;;;16.69;91.82;101038.63;7360861;19;20019;-62
2023/07/17 02:58:17;;;;;;;9.45;1.70;;;;;;;16.67;91.73;101033.50;7357426;19;20018;-61
2023/07/17 03:00:46;;;;;;;10.23;1.35;;;;;;;16.66;92.28;101037.16;7354010;19;20014;-63
2023/07/17 03:03:13;;;;;;;13.02;1.90;;;;;;;16.64;92.51;101049.00;7355664;19;20011;-62
2023/07/17 03:05:40;;;;;;;11.70;1.63;;;;;;;16.64;92.88;101047.16;7358328;19;20613;-63
2023/07/17 03:08:10;;;;;;;9.23;1.60;;;;;;;16.67;93.16;101056.59;7356662;19;20026;-63
2023/07/17 03:10:37;;;;;;;7.80;1.10;;;;;;;16.66;93.08;101054.94;7356821;19;20016;-62
2023/07/17 03:13:04;;;;;;;12.50;1.48;;;;;;;16.61;92.51;101052.84;7357859;19;20017;-62
2023/07/17 03:15:34;;;;;;;9.02;1.73;;;;;;;16.60;92.49;101059.19;7357704;19;20139;-61
2023/07/17 03:18:02;;;;;;;11.23;1.50;;;;;;;16.58;92.50;101061.19;7355347;19;20062;-62
2023/07/17 03:20:30;;;;;;;10.27;1.67;;;;;;;16.58;92.60;101060.34;7357984;19;20019;-63
2023/07/17 03:22:57;;;;;;;7.57;1.23;;;;;;;16.57;92.97;101056.84;7357411;19;20467;-62
2023/07/17 03:25:25;;;;;;;11.50;1.80;;;;;;;16.60;92.83;101061.84;7358554;19;20417;-62
2023/07/17 03:27:52;;;;;;;12.48;1.92;;;;;;;16.61;93.00;101065.28;7356892;19;20019;-62
2023/07/17 03:30:19;;;;;;;9.13;1.60;;;;;;;16.60;92.63;101069.81;7356293;19;20026;-63
2023/07/17 03:32:46;;;;;;;12.27;1.75;;;;;;;16.57;92.38;101070.13;7356228;19;20019;-62
2023/07/17 03:35:14;;;;;;;9.48;1.30;;;;;;;16.58;92.25;101071.81;7355732;19;21909;-62
2023/07/17 03:37:42;;;;;;;9.35;1.70;;;;;;;16.60;92.55;101077.78;7356865;19;21117;-63
2023/07/17 03:40:10;;;;;;;7.90;1.67;;;;;;;16.63;93.01;101082.72;7357456;19;20024;-63
2023/07/17 03:42:37;;;;;;;8.48;1.40;;;;;;;16.60;92.06;101071.63;7357450;19;20011;-62
2023/07/17 03:45:05;;;;;;;9.02;1.83;;;;;;;16.60;91.97;101080.44;7359609;19;20598;-63
2023/07/17 03:47:35;;;;;;;8.80;1.65;;;;;;;16.57;92.20;101083.41;7360057;19;20010;-62
2023/07/17 03:50:04;;;;;;;10.05;1.70;;;;;;;16.58;92.40;101078.94;7361682;19;20154;-62
2023/07/17 03:52:31;;;;;;;9.38;1.58;;;;;;;16.60;92.93;101088.41;7365218;19;20030;-63
2023/07/17 03:54:59;;;;;;;9.00;1.50;;;;;;;16.64;93.22;101080.88;7362241;19;20011;-62
2023/07/17 03:57:26;;;;;;;7.95;1.30;;;;;;;16.67;92.93;101088.47;7366055;19;20010;-62
2023/07/17 03:59:55;;;;;;;9.68;1.38;;;;;;;16.65;92.54;101086.03;7358858;19;20023;-62
2023/07/17 04:02:23;;;;;;;8.80;1.73;;;;;;;16.60;92.08;101096.38;7360337;19;20019;-62
2023/07/17 04:04:50;;;;;;;8.25;1.55;;;;;;;16.58;92.44;101095.72;7361689;19;20018;-61
2023/07/17 04:07:17;;;;;;;10.10;1.65;;;;;;;16.59;93.11;101092.06;7364656;19;20006;-62
2023/07/17 04:09:44;;;;;;;10.43;1.63;;;;;;;16.57;92.88;101094.03;7362299;19;20041;-62
2023/07/17 04:12:12;;;;;;;7.03;1.50;;;;;;;16.60;92.64;101095.56;7364281;19;20360;-63
2023/07/17 04:14:39;;;;;;;10.45;1.80;;;;;;;16.58;92.77;101098.38;7363678;19;20042;-62
2023/07/17 04:17:07;;;;;;;12.48;2.67;;;;;;;16.56;92.57;101099.53;7358952;19;20499;-63
2023/07/17 04:19:34;;;;;;;13.73;1.92;;;;;;;16.53;92.78;101108.72;7362740;19;20400;-62
2023/07/17 04:22:02;;;;;;;10.90;2.05;;;;;;;16.53;92.78;101105.22;7361434;19;20014;-63
2023/07/17 04:24:29;;;;;;;5.05;1.27;;;;;;;16.52;92.99;101107.06;7362787;19;20014;-63
2023/07/17 04:26:56;;;;;;;9.98;2.65;;;;;;;16.51;92.86;101109.88;7364087;19;22137;-63
2023/07/17 04:29:24;;;;;;;12.00;1.73;;;;;;;16.50;93.03;101110.94;7361724;19;20010;-62
2023/07/17 04:31:51;;;;;;;7.15;1.70;;;;;;;16.51;93.22;101117.84;7359901;19;20018;-62
2023/07/17 04:34:19;;;;;;;8.07;1.90;;;;;;;16.48;93.08;101108.44;7359986;19;20022;-62
2023/07/17 04:36:46;;;;;;;6.82;1.75;;;;;;;16.50;93.72;101118.91;7360290;19;20026;-62
2023/07/17 04:39:13;;;;;;;11.57;3.20;;;;;;;16.51;93.64;101117.84;7361174;19;20510;-63
2023/07/17 04:41:41;;;;;;;11.23;2.13;;;;;;;16.54;93.59;101123.66;7363506;19;20024;-62
2023/07/17 04:44:08;;;;;;;9.20;2.00;;;;;;;16.56;93.69;101124.28;7360777;19;20371;-62
2023/07/17 04:46:35;;;;;;;13.43;2.72;;;;;;;16.54;93.35;101122.81;7361769;19;20364;-63
2023/07/17 04:49:03;;;;;;;20.85;3.92;;;;;;;16.55;93.10;101125.31;7360445;19;20134;-63
2023/07/17 04:51:30;;;;;;;11.23;2.70;;;;;;;16.60;93.82;101122.13;7362130;19;20034;-61
2023/07/17 04:53:58;;;;;;;12.00;1.77;;;;;;;16.60;93.40;101120.28;7361455;19;20147;-63
2023/07/17 04:56:25;;;;;;;9.15;3.05;;;;;;;16.59;93.03;101115.97;7360381;19;20002;-61
2023/07/17 04:58:55;;;;;;;10.77;2.15;;;;;;;16.62;93.05;101120.91;7362669;19;20002;-62
2023/07/17 05:01:22;;;;;;;8.68;2.72;;;;;;;16.62;93.10;101120.09;7356744;19;20018;-62
2023/07/17 05:03:49;;;;;;;6.35;1.83;;;;;;;16.60;92.98;101124.78;7358825;19;20011;-62
2023/07/17 05:06:17;;;;;;;13.15;2.92;;;;;;;16.58;92.78;101126.75;7362607;19;20094;-62
2023/07/17 05:08:44;;;;;;;10.73;2.20;;;;;;;16.59;93.23;101131.94;7360424;19;21033;-63
2023/07/17 05:11:11;;;;;;;8.00;1.98;;;;;;;16.56;93.04;101129.59;7361744;19;21050;-63
2023/07/17 05:13:38;;;;;;;8.32;2.17;;;;;;;16.54;92.90;101128.13;7362283;19;20024;-62
2023/07/17 05:16:06;;;;;;;9.63;2.35;;;;;;;16.53;92.72;101143.25;7360911;19;20085;-62
2023/07/17 05:18:33;;;;;;;13.75;3.00;;;;;;;16.54;92.97;101141.41;7360701;19;20018;-60
2023/07/17 05:21:00;;;;;;;12.20;3.15;;;;;;;16.56;93.55;101148.19;7361027;19;20027;-63
2023/07/17 05:23:28;;;;;;;9.18;2.53;;;;;;;16.58;93.40;101143.56;7360877;19;20038;-61
2023/07/17 05:25:58;;;;;;;16.10;2.65;;;;;;;16.60;93.25;101149.53;7360827;19;20011;-61
2023/07/17 05:28:27;;;;;;;10.93;2.25;;;;;;;16.64;93.20;101142.81;7358440;19;20101;-62
2023/07/17 05:30:56;;;;;;;11.15;2.47;;;;;;;16.70;93.43;101149.25;7360185;19;20590;-62
2023/07/17 05:33:25;;;;;;;8.38;2.47;;;;;;;16.75;93.46;101154.81;7361741;19;20085;-62
2023/07/17 05:35:52;;;;;;;10.82;2.80;;;;;;;16.81;93.34;101153.25;7360348;19;20019;-61
2023/07/17 05:38:19;;;;;;;12.30;3.78;;;;;;;16.83;92.93;101146.75;7359930;19;20025;-62
2023/07/17 05:40:46;;;;;;;10.75;2.20;;;;;;;16.83;92.44;101156.53;7362440;19;20014;-62
2023/07/17 05:43:14;;;;;;;7.43;1.90;;;;;;;16.83;92.06;101148.56;7361293;19;21631;-62
2023/07/17 05:45:41;;;;;;;9.30;2.60;;;;;;;16.82;91.70;101157.53;7359050;19;20086;-62
2023/07/17 05:48:09;;;;;;;10.80;2.40;;;;;;;16.86;92.27;101159.69;7358906;19;20131;-63
2023/07/17 05:50:36;;;;;;;11.45;2.75;;;;;;;16.85;92.45;101158.03;7358049;19;20014;-61
2023/07/17 05:53:03;;;;;;;10.07;3.03;;;;;;;16.86;91.87;101157.03;7357906;19;20014;-63
2023/07/17 05:55:30;;;;;;;11.32;2.60;;;;;;;16.89;92.09;101159.28;7359308;19;20022;-62
2023/07/17 05:58:01;;;;;;;7.35;2.55;;;;;;;16.93;92.19;101163.22;7357413;19;20014;-63
2023/07/17 06:00:29;;;;;;;10.80;2.95;;;;;;;16.98;91.87;101158.16;7359423;19;20085;-62
2023/07/17 06:02:56;;;;;;;10.15;2.97;;;;;;;16.94;91.22;101164.88;7355107;19;20911;-61
2023/07/17 06:05:24;;;;;;;11.88;3.03;;;;;;;16.97;91.61;101164.50;7359949;19;20025;-62
2023/07/17 06:07:51;;;;;;;10.18;2.85;;;;;;;16.97;91.41;101168.97;7358036;19;20015;-63
2023/07/17 06:10:19;;;;;;;11.13;3.17;;;;;;;17.02;91.44;101171.91;7360308;19;20022;-63
2023/07/17 06:12:46;;;;;;;10.85;2.75;;;;;;;17.06;91.75;101171.38;7360249;19;20014;-63
2023/07/17 06:15:14;;;;;;;11.32;3.30;;;;;;;17.12;91.86;101172.44;7358837;19;20022;-62
2023/07/17 06:17:41;;;;;;;9.48;2.42;;;;;;;17.19;92.65;101172.53;7357529;19;20392;-63
2023/07/17 06:20:09;;;;;;;12.73;3.20;;;;;;;17.23;91.89;101174.63;7350729;19;20018;-62
2023/07/17 06:22:37;;;;;;;11.95;4.10;;;;;;;17.30;91.52;101175.53;7359642;19;20010;-62
2023/07/17 06:25:05;;;;;;;13.57;2.72;;;;;;;17.38;91.00;101177.22;7358617;19;20018;-62
2023/07/17 06:27:32;;;;;;;11.75;2.72;;;;;;;17.43;90.12;101178.31;7358708;19;20050;-61
2023/07/17 06:29:59;;;;;;;12.00;2.72;;;;;;;17.44;89.71;101182.63;7358345;19;20051;-62
2023/07/17 06:32:27;;;;;;;9.02;2.33;;;;;;;17.45;89.41;101180.78;7357546;19;20070;-63
2023/07/17 06:34:54;;;;;;;10.43;2.42;;;;;;;17.46;89.24;101180.63;7356615;19;20048;-62
2023/07/17 06:37:21;;;;;;;11.70;2.67;;;;;;;17.55;88.97;101194.63;7355944;19;20022;-62
2023/07/17 06:39:49;;;;;;;11.70;2.50;;;;;;;17.57;88.58;101179.28;7358027;19;20015;-62
2023/07/17 06:42:16;;;;;;;10.50;3.25;;;;;;;17.61;88.24;101191.22;7358047;19;20035;-62
2023/07/17 06:44:43;;;;;;;10.07;2.45;;;;;;;17.69;88.52;101195.59;7358412;19;20768;-62
2023/07/17 06:47:13;;;;;;;9.73;2.03;;;;;;;17.69;88.13;101200.91;7354137;19;20006;-61
2023/07/17 06:50:01;;;;;;;10.13;2.40;;;;;;;17.67;87.55;101194.97;7357512;19;20154;-63
2023/07/17 06:52:28;;;;;;;13.07;2.95;;;;;;;17.69;87.51;101203.56;7361160;19;20022;-63
2023/07/17 06:54:55;;;;;;;8.60;2.17;;;;;;;17.73;88.05;101210.16;7359827;19;20022;-62
2023/07/17 06:57:32;;;;;;;11.52;2.50;;;;;;;17.76;88.46;101212.47;7358012;19;20015;-62
2023/07/17 07:00:09;;;;;;;11.55;2.72;;;;;;;17.80;88.06;101211.88;7357115;19;20018;-62
2023/07/17 07:02:36;;;;;;;7.50;2.50;;;;;;;17.84;88.00;101215.00;7356617;19;20040;-63
2023/07/17 07:05:06;;;;;;;9.65;2.50;;;;;;;17.86;87.73;101211.13;7354559;19;20015;-63
2023/07/17 07:07:33;;;;;;;9.57;2.05;;;;;;;17.84;86.59;101213.16;7358389;19;20037;-62
2023/07/17 07:10:00;;;;;;;10.05;2.50;;;;;;;17.88;86.80;101210.91;7358390;19;20024;-62
2023/07/17 07:12:27;;;;;;;8.68;2.10;;;;;;;17.94;87.47;101220.81;7362020;19;20010;-61
2023/07/17 07:14:55;;;;;;;7.13;2.10;;;;;;;18.00;87.13;101224.56;7360271;19;20033;-62
2023/07/17 07:17:21;;;;;;;13.20;2.10;;;;;;;18.08;87.04;101221.78;7359035;19;20633;-61
2023/07/17 07:19:51;;;;;;;9.43;2.25;;;;;;;18.14;86.03;101231.63;7363303;19;20025;-63
2023/07/17 07:22:18;;;;;;;7.07;1.73;;;;;;;18.12;84.64;101221.19;7367372;19;20560;-62
2023/07/17 07:24:46;;;;;;;9.93;2.08;;;;;;;18.14;84.31;101229.81;7363050;19;20025;-62
2023/07/17 07:27:13;;;;;;;7.22;1.80;;;;;;;18.18;84.38;101224.94;7366566;19;20471;-61
2023/07/17 07:29:40;;;;;;;4.47;1.33;;;;;;;18.15;83.37;101236.78;7366746;19;20130;-62
2023/07/17 07:32:08;;;;;;;9.70;1.65;;;;;;;18.18;83.40;101240.91;7365795;19;20034;-62
2023/07/17 07:34:37;;;;;;;6.82;1.60;;;;;;;18.24;83.74;101240.94;7364015;19;20014;-62
2023/07/17 07:37:15;;;;;;;6.60;1.52;;;;;;;18.32;83.88;101237.34;7361697;19;20649;-64
2023/07/17 07:39:42;;;;;;;7.45;1.83;;;;;;;18.39;83.29;101236.34;7364637;19;20098;-62
2023/07/17 07:42:09;;;;;;;7.95;1.45;;;;;;;18.53;83.63;101247.13;7364593;19;20049;-62
2023/07/17 07:44:36;;;;;;;6.10;1.50;;;;;;;18.61;82.12;101250.50;7365177;19;20040;-62
2023/07/17 07:47:11;;;;;;;6.25;0.98;;;;;;;18.69;80.79;101246.88;7365315;19;20017;-61
2023/07/17 07:49:38;;;;;;;9.95;1.60;;;;;;;18.77;80.87;101255.53;7364134;19;20022;-62
2023/07/17 07:52:05;;;;;;;5.25;1.10;;;;;;;18.85;79.93;101262.53;7364798;19;21063;-62
2023/07/17 07:54:32;;;;;;;6.82;2.13;;;;;;;18.94;79.87;101265.88;7365909;19;20078;-63
2023/07/17 07:56:59;;;;;;;5.95;1.02;;;;;;;19.03;79.31;101265.53;7365197;19;20010;-63
2023/07/17 07:59:35;;;;;;;4.65;0.98;;;;;;;19.07;77.42;101265.94;7364779;19;20336;-62
2023/07/17 08:02:04;;;;;;;5.15;0.77;;;;;;;18.98;76.49;101273.28;7363983;19;20019;-62
2023/07/17 08:04:31;;;;;;;5.35;0.98;;;;;;;18.95;77.32;101270.19;7354703;19;20014;-62
2023/07/17 08:07:10;;;;;;;4.30;0.90;;;;;;;19.05;77.52;101265.31;7361859;19;20011;-62
2023/07/17 08:09:38;;;;;;;5.55;1.35;;;;;;;19.06;77.24;101272.28;7365981;19;20039;-62
2023/07/17 08:12:05;;;;;;;6.25;0.98;;;;;;;19.07;76.84;101268.63;7365184;19;20026;-62
2023/07/17 08:14:32;;;;;;;9.38;1.23;;;;;;;19.15;77.73;101269.25;7363588;19;20443;-62
2023/07/17 08:17:11;;;;;;;7.95;0.93;;;;;;;19.26;78.95;101270.53;7363098;19;20716;-62
2023/07/17 08:19:39;;;;;;;4.97;0.95;;;;;;;19.40;78.86;101269.56;7362377;19;20051;-62
2023/07/17 08:22:06;;;;;;;6.38;0.80;;;;;;;19.58;77.58;101275.22;7365494;19;20038;-62
2023/07/17 08:24:33;;;;;;;4.53;0.80;;;;;;;19.72;75.29;101268.06;7362655;19;20047;-63
2023/07/17 08:27:05;;;;;;;6.07;1.48;;;;;;;19.74;73.47;101274.03;7363653;19;20015;-62
2023/07/17 08:29:32;;;;;;;4.95;0.98;;;;;;;19.83;73.18;101270.16;7361921;19;21723;-61
2023/07/17 08:31:59;;;;;;;6.00;1.10;;;;;;;19.98;72.54;101276.16;7361436;19;20969;-61
2023/07/17 08:34:29;;;;;;;5.13;0.73;;;;;;;20.06;71.64;101275.94;7362895;19;20024;-61
2023/07/17 08:36:56;;;;;;;5.80;0.88;;;;;;;20.13;72.46;101280.47;7361635;19;20123;-62
2023/07/17 08:39:38;;;;;;;5.43;0.57;;;;;;;20.15;71.20;101279.25;7363719;19;20101;-62
2023/07/17 08:42:06;;;;;;;4.47;0.70;;;;;;;20.12;69.17;101273.47;7364018;19;20351;-63
2023/07/17 08:44:33;;;;;;;5.93;0.70;;;;;;;20.13;70.37;101281.28;7361592;19;20106;-62
2023/07/17 08:47:05;;;;;;;3.30;0.50;;;;;;;20.14;68.55;101279.44;7361327;19;20037;-63
2023/07/17 08:49:45;;;;;;;6.22;0.55;;;;;;;20.10;68.38;101279.03;7361516;19;20015;-62
2023/07/17 08:52:13;;;;;;;4.75;0.40;;;;;;;20.04;68.23;101274.50;7362471;19;20053;-61
2023/07/17 08:54:40;;;;;;;6.38;0.52;;;;;;;20.05;68.21;101276.16;7360102;19;20042;-62
2023/07/17 08:57:12;;;;;;;6.55;0.50;;;;;;;20.12;69.50;101268.97;7360991;19;20018;-62
2023/07/17 08:59:39;;;;;;;4.72;1.25;;;;;;;20.19;68.53;101277.00;7363869;19;20594;-62
2023/07/17 09:02:07;;;;;;;3.38;0.50;;;;;;;20.21;68.22;101274.94;7364506;19;20018;-62
2023/07/17 09:04:35;;;;;;;3.38;0.50;;;;;;;20.15;67.87;101276.59;7361797;19;20018;-62
2023/07/17 09:07:16;;;;;;;3.50;0.60;;;;;;;20.10;67.46;101286.22;7357882;19;20098;-62
2023/07/17 09:09:43;;;;;;;4.85;0.52;;;;;;;20.04;67.97;101285.19;7365110;19;20526;-63
2023/07/17 09:12:12;;;;;;;2.60;0.40;;;;;;;20.02;68.66;101276.53;7364245;19;20011;-63
2023/07/17 09:14:39;;;;;;;3.90;0.60;;;;;;;19.98;68.33;101273.47;7300899;19;20653;-62
2023/07/17 09:17:11;;;;;;;2.97;0.50;;;;;;;19.99;66.60;101274.28;7350558;19;20018;-62
2023/07/17 09:19:38;;;;;;;4.88;0.40;;;;;;;20.04;66.61;101280.69;7361159;19;20015;-62
2023/07/17 09:22:07;;;;;;;3.75;0.45;;;;;;;20.10;66.96;101284.38;7361637;19;20010;-63
2023/07/17 09:24:37;;;;;;;5.05;0.50;;;;;;;20.21;66.74;101290.97;7361880;19;20048;-62
2023/07/17 09:27:16;;;;;;;3.42;0.95;;;;;;;20.28;66.13;101273.91;7363906;19;20322;-62
2023/07/17 09:29:44;;;;;;;3.22;0.40;;;;;;;20.46;67.27;101287.53;7359649;19;20049;-62
2023/07/17 09:32:19;;;;;;;3.20;0.40;;;;;;;20.62;66.33;101286.25;7363133;19;20015;-62
2023/07/17 09:35:02;;;;;;;3.92;0.35;;;;;;;20.73;64.49;101285.63;7359380;19;20063;-61
2023/07/17 09:37:31;;;;;;;2.03;0.32;;;;;;;20.80;63.90;101285.63;7362928;19;20027;-62
2023/07/17 09:39:59;;;;;;;2.03;0.38;;;;;;;20.86;64.38;101287.47;7362067;19;20037;-62
2023/07/17 09:42:26;;;;;;;9.32;0.80;;;;;;;20.86;63.93;101293.66;7359893;19;20027;-62
2023/07/17 09:44:53;;;;;;;2.55;0.40;;;;;;;20.89;62.92;101295.91;7361366;19;20852;-62
2023/07/17 09:47:21;;;;;;;1.45;0.30;;;;;;;20.92;61.90;101286.66;7362328;19;20025;-62
2023/07/17 09:49:50;;;;;;;7.38;0.25;;;;;;;20.95;60.42;101288.88;7359388;19;20352;-62
2023/07/17 09:52:18;;;;;;;2.28;0.30;;;;;;;21.04;61.71;101294.84;7361714;19;20014;-62
2023/07/17 09:54:51;;;;;;;2.65;0.25;;;;;;;21.12;60.48;101294.63;7363836;19;20950;-62
2023/07/17 09:57:35;;;;;;;4.60;0.40;;;;;;;21.16;60.38;101299.38;7359951;19;20032;-63
2023/07/17 10:00:11;;;;;;;2.22;0.35;;;;;;;21.15;59.70;101297.72;7361389;19;20420;-68
2023/07/17 10:02:47;;;;;;;4.30;0.30;;;;;;;21.12;60.13;101286.59;7363101;19;20015;-62
2023/07/17 10:05:14;;;;;;;2.95;0.50;;;;;;;21.10;59.04;101296.66;7358453;19;20013;-61
2023/07/17 10:07:45;;;;;;;2.03;0.30;;;;;;;21.09;60.41;101297.69;7362828;19;20089;-62
2023/07/17 10:10:12;;;;;;;1.95;0.30;;;;;;;21.12;60.85;101302.66;7362181;19;20007;-62
2023/07/17 10:12:40;;;;;;;4.07;0.40;;;;;;;21.11;60.10;101295.66;7362852;19;20719;-63
2023/07/17 10:15:09;;;;;;;3.05;0.40;;;;;;;21.10;60.81;101300.19;7358455;19;20035;-63
2023/07/17 10:17:36;;;;;;;4.47;0.30;;;;;;;21.05;61.35;101305.34;7360955;19;20051;-62
2023/07/17 10:20:08;;;;;;;3.92;0.85;;;;;;;21.06;62.37;101298.13;7359616;19;20434;-62
2023/07/17 10:22:40;;;;;;;1.92;0.40;;;;;;;21.02;60.69;101307.63;7361231;19;20022;-63
2023/07/17 10:25:27;;;;;;;1.80;0.30;;;;;;;21.03;61.83;101314.63;7360437;19;20026;-62
2023/07/17 10:27:59;;;;;;;2.42;0.30;;;;;;;21.10;62.20;101299.34;7363008;19;20302;-61
2023/07/17 10:30:34;;;;;;;2.45;0.40;;;;;;;21.18;61.34;101302.66;7361224;19;20006;-61
2023/07/17 10:33:19;;;;;;;5.03;0.55;;;;;;;21.31;61.16;101299.13;7357227;19;20018;-61
2023/07/17 10:35:52;;;;;;;2.92;0.70;;;;;;;21.40;58.57;101302.38;7359250;19;20512;-61
2023/07/17 10:38:24;;;;;;;3.22;0.38;;;;;;;21.46;56.52;101296.16;7359869;19;20018;-65
2023/07/17 10:41:03;;;;;;;2.00;0.20;;;;;;;21.50;56.41;101298.22;7359340;19;20050;-62
2023/07/17 10:43:31;;;;;;;1.55;0.30;;;;;;;21.57;55.89;101309.72;7361099;19;20018;-62
2023/07/17 10:45:59;;;;;;;3.00;0.22;;;;;;;21.68;56.02;101309.06;7353272;19;20011;-62
2023/07/17 10:48:34;;;;;;;3.53;0.40;;;;;;;21.75;56.25;101309.00;7359745;19;20432;-61
2023/07/17 10:51:02;;;;;;;2.53;0.20;;;;;;;21.87;56.34;101304.63;7360676;19;20090;-62
2023/07/17 10:53:30;;;;;;;2.40;0.30;;;;;;;21.93;55.38;101313.66;7358751;19;20029;-62
2023/07/17 10:55:58;;;;;;;4.30;0.50;;;;;;;21.97;56.07;101304.19;7360756;19;20544;-63
2023/07/17 10:58:31;;;;;;;2.72;0.30;;;;;;;21.95;54.59;101317.78;7358701;19;20022;-62
2023/07/17 11:01:04;;;;;;;5.30;0.30;;;;;;;21.92;54.53;101314.69;7358068;19;20709;-62
2023/07/17 11:03:31;;;;;;;3.72;0.22;;;;;;;21.94;54.90;101316.13;7357086;19;20052;-61
2023/07/17 11:05:58;;;;;;;1.92;0.30;;;;;;;21.95;54.79;101319.63;7355283;19;20361;-61
2023/07/17 11:08:35;;;;;;;3.80;0.30;;;;;;;22.02;56.42;101320.44;7357532;19;20109;-62
2023/07/17 11:11:02;;;;;;;2.72;0.30;;;;;;;22.06;55.49;101319.78;7359449;19;20014;-61
2023/07/17 11:13:31;;;;;;;3.17;0.30;;;;;;;22.15;57.14;101321.16;7360932;19;20015;-62
2023/07/17 11:16:08;;;;;;;2.13;0.47;;;;;;;22.22;54.83;101323.81;7358075;19;20094;-62
2023/07/17 11:19:04;;;;;;;3.30;0.22;;;;;;;22.23;53.52;101333.50;7357952;19;20708;-62
2023/07/17 11:21:32;;;;;;;4.28;0.40;;;;;;;22.30;57.47;101312.00;7359463;19;20155;-62
2023/07/17 11:24:01;;;;;;;3.20;0.35;;;;;;;22.29;54.70;101331.81;7361517;19;20026;-63
2023/07/17 11:26:31;;;;;;;3.53;0.50;;;;;;;22.30;56.75;101328.88;7360980;19;20095;-62
2023/07/17 11:29:00;;;;;;;5.20;0.30;;;;;;;22.30;58.47;101331.56;7357805;19;20055;-61